createdAt,value
2018-01-01T00:00:56.673Z,99235.08
2018-01-01T00:01:59.149Z,99231.94
2018-01-01T00:03:01.633Z,99225.61
2018-01-01T00:04:04.082Z,99219.31
2018-01-01T00:05:06.555Z,99226.19
2018-01-01T00:06:09.063Z,99224.98
2018-01-01T00:07:11.551Z,99220.87
2018-01-01T00:08:14.010Z,99227.91
2018-01-01T00:09:16.484Z,99206.72
2018-01-01T00:10:18.952Z,99209.66
2018-01-01T00:11:21.440Z,99214.35
2018-01-01T00:12:23.916Z,99215.15
2018-01-01T00:13:26.487Z,99201.01
2018-01-01T00:14:28.939Z,99207.66
2018-01-01T00:15:31.397Z,99216.30
2018-01-01T00:16:33.854Z,99220.83
2018-01-01T00:17:36.326Z,99213.55
2018-01-01T00:18:38.782Z,99210.81
2018-01-01T00:19:41.234Z,99204.33
2018-01-01T00:20:43.710Z,99205.70
2018-01-01T00:21:46.196Z,99215.91
2018-01-01T00:22:48.670Z,99209.44
2018-01-01T00:23:51.163Z,99204.91
2018-01-01T00:24:53.617Z,99205.27
2018-01-01T00:25:56.066Z,99192.11
2018-01-01T00:26:58.553Z,99181.11
2018-01-01T00:28:01.038Z,99178.36
2018-01-01T00:29:03.503Z,99167.95
2018-01-01T00:30:05.975Z,99172.07
2018-01-01T00:31:08.440Z,99175.80
2018-01-01T00:32:10.905Z,99167.55
2018-01-01T00:33:13.373Z,99171.67
2018-01-01T00:34:15.840Z,99171.67
2018-01-01T00:35:18.291Z,99173.05
2018-01-01T00:36:20.742Z,99168.92
2018-01-01T00:37:23.209Z,99175.97
2018-01-01T00:38:25.684Z,99177.53
2018-01-01T00:39:28.146Z,99177.34
2018-01-01T00:40:30.620Z,99170.87
2018-01-01T00:41:33.094Z,99169.28
2018-01-01T00:42:35.545Z,99164.76
2018-01-01T00:43:38.022Z,99163.78
2018-01-01T00:44:40.570Z,99164.58
2018-01-01T00:45:43.054Z,99175.75
2018-01-01T00:46:45.510Z,99170.44
2018-01-01T00:47:47.972Z,99164.36
2018-01-01T00:48:50.478Z,99162.19
2018-01-01T00:49:52.930Z,99161.80
2018-01-01T00:50:55.400Z,99170.84
2018-01-01T00:51:57.863Z,99177.30
2018-01-01T00:53:00.351Z,99173.36
2018-01-01T00:54:02.844Z,99165.30
2018-01-01T00:55:05.312Z,99178.46
2018-01-01T00:56:07.765Z,99174.91
2018-01-01T00:57:10.214Z,99170.80
2018-01-01T00:58:12.666Z,99170.97
2018-01-01T00:59:15.153Z,99173.33
2018-01-01T01:00:17.613Z,99170.58
2018-01-01T01:01:20.087Z,99166.45
2018-01-01T01:02:22.560Z,99169.38
2018-01-01T01:03:25.028Z,99177.05
2018-01-01T01:04:27.520Z,99175.85
2018-01-01T01:05:30.039Z,99179.00
2018-01-01T01:06:32.507Z,99167.61
2018-01-01T01:07:34.958Z,99178.78
2018-01-01T01:08:37.423Z,99172.70
2018-01-01T01:09:39.916Z,99178.20
2018-01-01T01:10:42.386Z,99177.01
2018-01-01T01:11:44.863Z,99179.75
2018-01-01T01:12:47.343Z,99191.33
2018-01-01T01:13:49.816Z,99192.52
2018-01-01T01:14:52.281Z,99203.29
2018-01-01T01:15:54.733Z,99211.94
2018-01-01T01:16:57.185Z,99215.25
2018-01-01T01:17:59.648Z,99207.02
2018-01-01T01:19:02.100Z,99229.00
2018-01-01T01:20:04.598Z,99235.04
2018-01-01T01:21:07.079Z,99235.04
2018-01-01T01:22:09.534Z,99241.11
2018-01-01T01:23:11.995Z,99248.78
2018-01-01T01:24:14.458Z,99259.77
2018-01-01T01:25:16.943Z,99258.00
2018-01-01T01:26:19.397Z,99247.19
2018-01-01T01:27:21.846Z,99247.19
2018-01-01T01:28:24.298Z,99249.13
2018-01-01T01:29:26.772Z,99240.27
2018-01-01T01:30:29.261Z,99219.48
2018-01-01T01:31:31.713Z,99219.09
2018-01-01T01:32:34.171Z,99217.31
2018-01-01T01:33:36.622Z,99209.07
2018-01-01T01:34:39.092Z,99197.28
2018-01-01T01:35:41.617Z,99196.88
2018-01-01T01:36:44.069Z,99210.63
2018-01-01T01:37:46.537Z,99209.25
2018-01-01T01:38:49.004Z,99207.08
2018-01-01T01:39:51.456Z,99205.70
2018-01-01T01:40:53.930Z,99215.50
2018-01-01T01:41:56.399Z,99215.89
2018-01-01T01:42:58.850Z,99214.70
2018-01-01T01:44:01.302Z,99217.45
2018-01-01T01:45:03.773Z,99216.47
2018-01-01T01:46:06.246Z,99227.06
2018-01-01T01:47:08.698Z,99229.81
2018-01-01T01:48:11.157Z,99218.02
2018-01-01T01:49:13.615Z,99228.62
2018-01-01T01:50:16.073Z,99228.62
2018-01-01T01:51:18.589Z,99230.56
2018-01-01T01:52:21.061Z,99229.77
2018-01-01T01:53:23.535Z,99239.39
2018-01-01T01:54:26.004Z,99231.55
2018-01-01T01:55:28.522Z,99239.97
2018-01-01T01:56:30.965Z,99234.47
2018-01-01T01:57:33.436Z,99233.27
2018-01-01T01:58:35.997Z,99227.38
2018-01-01T01:59:38.465Z,99233.67
2018-01-01T02:00:40.927Z,99239.56
2018-01-01T02:01:43.409Z,99235.05
2018-01-01T02:02:45.863Z,99243.28
2018-01-01T02:03:48.321Z,99237.80
2018-01-01T02:04:50.784Z,99237.97
2018-01-01T02:05:53.348Z,99231.67
2018-01-01T02:06:55.841Z,99227.55
2018-01-01T02:07:58.296Z,99224.41
2018-01-01T02:09:00.768Z,99217.14
2018-01-01T02:10:03.234Z,99213.82
2018-01-01T02:11:05.710Z,99219.49
2018-01-01T02:12:08.206Z,99214.97
2018-01-01T02:13:10.659Z,99226.36
2018-01-01T02:14:13.139Z,99227.34
2018-01-01T02:15:15.612Z,99213.59
2018-01-01T02:16:18.076Z,99213.02
2018-01-01T02:17:20.560Z,99214.75
2018-01-01T02:18:23.038Z,99216.92
2018-01-01T02:19:25.503Z,99207.30
2018-01-01T02:20:27.954Z,99207.30
2018-01-01T02:21:30.406Z,99204.34
2018-01-01T02:22:32.975Z,99207.48
2018-01-01T02:23:35.440Z,99207.88
2018-01-01T02:24:37.895Z,99202.56
2018-01-01T02:25:40.364Z,99212.19
2018-01-01T02:26:42.834Z,99207.27
2018-01-01T02:27:45.305Z,99211.38
2018-01-01T02:28:47.771Z,99211.38
2018-01-01T02:29:50.236Z,99210.19
2018-01-01T02:30:52.686Z,99206.86
2018-01-01T02:31:55.148Z,99210.19
2018-01-01T02:32:57.639Z,99209.79
2018-01-01T02:34:00.105Z,99221.91
2018-01-01T02:35:02.574Z,99216.41
2018-01-01T02:36:05.034Z,99222.48
2018-01-01T02:37:07.485Z,99220.30
2018-01-01T02:38:09.958Z,99224.83
2018-01-01T02:39:12.419Z,99234.44
2018-01-01T02:40:14.907Z,99231.30
2018-01-01T02:41:17.378Z,99235.02
2018-01-01T02:42:19.860Z,99229.13
2018-01-01T02:43:22.394Z,99230.50
2018-01-01T02:44:24.845Z,99231.08
2018-01-01T02:45:27.293Z,99222.84
2018-01-01T02:46:29.760Z,99242.06
2018-01-01T02:47:32.228Z,99223.81
2018-01-01T02:48:34.716Z,99223.41
2018-01-01T02:49:37.185Z,99228.33
2018-01-01T02:50:39.652Z,99226.73
2018-01-01T02:51:42.107Z,99235.77
2018-01-01T02:52:44.562Z,99240.47
2018-01-01T02:53:47.030Z,99238.92
2018-01-01T02:54:49.508Z,99238.13
2018-01-01T02:55:51.966Z,99241.05
2018-01-01T02:56:54.442Z,99242.02
2018-01-01T02:57:56.911Z,99241.22
2018-01-01T02:58:59.399Z,99235.91
2018-01-01T03:00:01.868Z,99232.58
2018-01-01T03:01:04.317Z,99234.93
2018-01-01T03:02:06.769Z,99236.30
2018-01-01T03:03:09.217Z,99225.89
2018-01-01T03:04:11.696Z,99232.36
2018-01-01T03:05:14.161Z,99227.44
2018-01-01T03:06:16.615Z,99233.34
2018-01-01T03:07:19.070Z,99220.17
2018-01-01T03:08:21.585Z,99224.30
2018-01-01T03:09:24.063Z,99230.94
2018-01-01T03:10:26.514Z,99221.73
2018-01-01T03:11:28.969Z,99236.44
2018-01-01T03:12:31.421Z,99230.55
2018-01-01T03:13:33.904Z,99237.02
2018-01-01T03:14:36.388Z,99224.66
2018-01-01T03:15:38.852Z,99229.75
2018-01-01T03:16:41.297Z,99226.20
2018-01-01T03:17:43.758Z,99236.22
2018-01-01T03:18:46.224Z,99240.52
2018-01-01T03:19:48.697Z,99225.01
2018-01-01T03:20:51.155Z,99242.28
2018-01-01T03:21:53.643Z,99241.48
2018-01-01T03:22:56.097Z,99246.01
2018-01-01T03:23:58.550Z,99242.69
2018-01-01T03:25:01.022Z,99243.84
2018-01-01T03:26:03.478Z,99231.87
2018-01-01T03:27:05.948Z,99242.06
2018-01-01T03:28:08.403Z,99238.92
2018-01-01T03:29:10.856Z,99247.55
2018-01-01T03:30:13.333Z,99251.86
2018-01-01T03:31:15.790Z,99244.77
2018-01-01T03:32:18.280Z,99244.77
2018-01-01T03:33:20.739Z,99245.74
2018-01-01T03:34:23.208Z,99247.52
2018-01-01T03:35:25.700Z,99250.04
2018-01-01T03:36:28.148Z,99249.64
2018-01-01T03:37:30.610Z,99242.77
2018-01-01T03:38:33.102Z,99250.22
2018-01-01T03:39:35.576Z,99251.98
2018-01-01T03:40:38.060Z,99246.67
2018-01-01T03:41:40.505Z,99245.87
2018-01-01T03:42:42.962Z,99253.14
2018-01-01T03:43:45.427Z,99259.61
2018-01-01T03:44:47.892Z,99265.89
2018-01-01T03:45:50.379Z,99262.89
2018-01-01T03:46:52.829Z,99259.61
2018-01-01T03:47:55.296Z,99272.94
2018-01-01T03:48:57.764Z,99263.88
2018-01-01T03:50:00.231Z,99273.09
2018-01-01T03:51:02.701Z,99268.17
2018-01-01T03:52:05.163Z,99261.30
2018-01-01T03:53:07.609Z,99266.80
2018-01-01T03:54:10.065Z,99269.72
2018-01-01T03:55:12.518Z,99273.84
2018-01-01T03:56:14.990Z,99271.09
2018-01-01T03:57:17.460Z,99268.52
2018-01-01T03:58:19.975Z,99265.77
2018-01-01T03:59:22.422Z,99274.98
2018-01-01T04:00:24.874Z,99276.36
2018-01-01T04:01:27.355Z,99283.80
2018-01-01T04:02:29.820Z,99275.56
2018-01-01T04:03:32.284Z,99282.43
2018-01-01T04:04:34.738Z,99283.80
2018-01-01T04:05:37.194Z,99280.27
2018-01-01T04:06:39.670Z,99288.50
2018-01-01T04:07:42.139Z,99286.15
2018-01-01T04:08:44.608Z,99283.19
2018-01-01T04:09:47.054Z,99287.13
2018-01-01T04:10:49.506Z,99288.10
2018-01-01T04:11:51.977Z,99292.22
2018-01-01T04:12:54.444Z,99296.34
2018-01-01T04:13:56.893Z,99298.29
2018-01-01T04:14:59.342Z,99300.64
2018-01-01T04:16:01.794Z,99298.46
2018-01-01T04:17:04.335Z,99297.66
2018-01-01T04:18:06.770Z,99302.19
2018-01-01T04:19:09.221Z,99303.16
2018-01-01T04:20:11.673Z,99308.66
2018-01-01T04:21:14.223Z,99303.73
2018-01-01T04:22:17.113Z,99311.97
2018-01-01T04:23:19.569Z,99304.31
2018-01-01T04:24:22.026Z,99301.16
2018-01-01T04:25:24.478Z,99312.55
2018-01-01T04:26:26.921Z,99319.41
2018-01-01T04:27:29.415Z,99313.70
2018-01-01T04:28:31.874Z,99324.28
2018-01-01T04:29:34.412Z,99317.42
2018-01-01T04:30:36.880Z,99323.89
2018-01-01T04:31:39.344Z,99329.78
2018-01-01T04:32:41.827Z,99336.24
2018-01-01T04:33:44.281Z,99330.17
2018-01-01T04:34:46.734Z,99341.96
2018-01-01T04:35:49.185Z,99334.87
2018-01-01T04:36:51.638Z,99342.13
2018-01-01T04:37:54.132Z,99332.30
2018-01-01T04:38:56.586Z,99336.24
2018-01-01T04:39:59.039Z,99339.97
2018-01-01T04:41:01.489Z,99326.23
2018-01-01T04:42:03.948Z,99325.03
2018-01-01T04:43:06.417Z,99325.61
2018-01-01T04:44:08.873Z,99329.33
2018-01-01T04:45:11.334Z,99334.42
2018-01-01T04:46:13.785Z,99342.48
2018-01-01T04:47:16.270Z,99333.62
2018-01-01T04:48:18.740Z,99341.86
2018-01-01T04:49:21.203Z,99343.78
2018-01-01T04:50:23.655Z,99340.23
2018-01-01T04:51:26.105Z,99348.88
2018-01-01T04:52:28.571Z,99352.59
2018-01-01T04:53:31.042Z,99358.09
2018-01-01T04:54:33.512Z,99352.19
2018-01-01T04:55:35.960Z,99356.48
2018-01-01T04:56:38.423Z,99367.30
2018-01-01T04:57:40.888Z,99377.48
2018-01-01T04:58:43.376Z,99378.06
2018-01-01T04:59:45.914Z,99378.63
2018-01-01T05:00:48.369Z,99374.11
2018-01-01T05:01:50.821Z,99380.80
2018-01-01T05:02:53.284Z,99386.30
2018-01-01T05:03:55.768Z,99379.61
2018-01-01T05:04:58.231Z,99385.09
2018-01-01T05:06:01.735Z,99387.19
2018-01-01T05:07:04.577Z,99386.22
2018-01-01T05:08:07.132Z,99380.72
2018-01-01T05:09:09.619Z,99392.11
2018-01-01T05:10:12.088Z,99404.47
2018-01-01T05:11:14.560Z,99399.15
2018-01-01T05:12:17.025Z,99397.95
2018-01-01T05:13:19.477Z,99406.59
2018-01-01T05:14:21.949Z,99397.95
2018-01-01T05:15:24.422Z,99396.58
2018-01-01T05:16:26.888Z,99395.20
2018-01-01T05:17:29.337Z,99406.19
2018-01-01T05:18:31.793Z,99405.39
2018-01-01T05:19:34.277Z,99410.88
2018-01-01T05:20:36.728Z,99411.45
2018-01-01T05:21:39.181Z,99418.31
2018-01-01T05:22:41.663Z,99421.23
2018-01-01T05:23:44.114Z,99422.03
2018-01-01T05:24:46.585Z,99422.61
2018-01-01T05:25:49.053Z,99419.87
2018-01-01T05:26:51.501Z,99426.33
2018-01-01T05:27:53.954Z,99429.25
2018-01-01T05:28:56.419Z,99426.50
2018-01-01T05:29:58.885Z,99427.48
2018-01-01T05:31:01.338Z,99427.08
2018-01-01T05:32:03.808Z,99419.02
2018-01-01T05:33:06.262Z,99433.14
2018-01-01T05:34:08.714Z,99433.54
2018-01-01T05:35:11.200Z,99429.42
2018-01-01T05:36:13.676Z,99429.42
2018-01-01T05:37:16.145Z,99427.65
2018-01-01T05:38:18.602Z,99436.06
2018-01-01T05:39:21.053Z,99444.30
2018-01-01T05:40:23.536Z,99443.33
2018-01-01T05:41:25.999Z,99444.87
2018-01-01T05:42:28.458Z,99445.27
2018-01-01T05:43:30.911Z,99444.47
2018-01-01T05:44:33.379Z,99449.97
2018-01-01T05:45:35.857Z,99438.41
2018-01-01T05:46:38.334Z,99446.42
2018-01-01T05:47:40.800Z,99442.30
2018-01-01T05:48:43.279Z,99440.75
2018-01-01T05:49:45.734Z,99441.33
2018-01-01T05:50:48.219Z,99445.84
2018-01-01T05:51:50.684Z,99446.42
2018-01-01T05:52:53.135Z,99444.82
2018-01-01T05:53:55.605Z,99443.45
2018-01-01T05:54:58.057Z,99441.50
2018-01-01T05:56:00.546Z,99448.36
2018-01-01T05:57:03.004Z,99447.97
2018-01-01T05:58:05.479Z,99456.20
2018-01-01T05:59:07.942Z,99447.73
2018-01-01T06:00:10.404Z,99458.72
2018-01-01T06:01:12.887Z,99460.67
2018-01-01T06:02:15.342Z,99472.45
2018-01-01T06:03:17.808Z,99467.31
2018-01-01T06:04:20.273Z,99463.02
2018-01-01T06:05:22.747Z,99468.91
2018-01-01T06:06:25.222Z,99470.85
2018-01-01T06:07:27.678Z,99473.20
2018-01-01T06:08:30.126Z,99473.38
2018-01-01T06:09:32.579Z,99465.14
2018-01-01T06:10:35.053Z,99477.89
2018-01-01T06:11:37.540Z,99477.66
2018-01-01T06:12:40.013Z,99483.16
2018-01-01T06:13:42.471Z,99493.16
2018-01-01T06:14:44.936Z,99483.73
2018-01-01T06:15:47.400Z,99488.81
2018-01-01T06:16:49.873Z,99494.71
2018-01-01T06:17:52.347Z,99491.56
2018-01-01T06:18:54.815Z,99502.72
2018-01-01T06:19:57.269Z,99496.43
2018-01-01T06:20:59.736Z,99499.75
2018-01-01T06:22:02.220Z,99504.66
2018-01-01T06:23:04.675Z,99498.92
2018-01-01T06:24:07.144Z,99495.38
2018-01-01T06:25:09.612Z,99501.27
2018-01-01T06:26:12.062Z,99500.29
2018-01-01T06:27:14.538Z,99498.92
2018-01-01T06:28:17.005Z,99507.59
2018-01-01T06:29:19.468Z,99504.41
2018-01-01T06:30:21.943Z,99511.44
2018-01-01T06:31:24.405Z,99511.05
2018-01-01T06:32:26.895Z,99514.77
2018-01-01T06:33:29.345Z,99522.20
2018-01-01T06:34:31.797Z,99521.22
2018-01-01T06:35:34.268Z,99517.28
2018-01-01T06:36:36.733Z,99522.38
2018-01-01T06:37:39.206Z,99520.59
2018-01-01T06:38:41.661Z,99518.25
2018-01-01T06:39:44.124Z,99529.63
2018-01-01T06:40:46.588Z,99530.61
2018-01-01T06:41:49.054Z,99530.61
2018-01-01T06:42:51.537Z,99532.95
2018-01-01T06:43:53.990Z,99528.84
2018-01-01T06:44:56.441Z,99524.31
2018-01-01T06:45:58.893Z,99507.44
2018-01-01T06:47:01.355Z,99527.23
2018-01-01T06:48:03.829Z,99532.32
2018-01-01T06:49:06.293Z,99530.95
2018-01-01T06:50:08.756Z,99525.86
2018-01-01T06:51:11.206Z,99533.88
2018-01-01T06:52:13.660Z,99519.17
2018-01-01T06:53:16.140Z,99524.26
2018-01-01T06:54:18.604Z,99524.83
2018-01-01T06:55:21.076Z,99517.57
2018-01-01T06:56:23.541Z,99528.55
2018-01-01T06:57:26.019Z,99530.33
2018-01-01T06:58:28.512Z,99524.03
2018-01-01T06:59:30.988Z,99516.77
2018-01-01T07:00:33.438Z,99522.26
2018-01-01T07:01:35.901Z,99524.61
2018-01-01T07:02:38.356Z,99522.26
2018-01-01T07:03:40.830Z,99525.75
2018-01-01T07:04:43.313Z,99528.33
2018-01-01T07:05:45.776Z,99523.98
2018-01-01T07:06:48.240Z,99532.22
2018-01-01T07:07:50.712Z,99533.19
2018-01-01T07:08:53.205Z,99531.02
2018-01-01T07:09:55.663Z,99530.21
2018-01-01T07:10:58.113Z,99530.61
2018-01-01T07:12:00.557Z,99534.16
2018-01-01T07:13:03.006Z,99534.16
2018-01-01T07:14:05.478Z,99532.95
2018-01-01T07:15:07.940Z,99534.91
2018-01-01T07:16:10.394Z,99541.36
2018-01-01T07:17:12.857Z,99536.10
2018-01-01T07:18:15.332Z,99530.78
2018-01-01T07:19:17.812Z,99534.91
2018-01-01T07:20:20.276Z,99539.98
2018-01-01T07:21:22.747Z,99540.56
2018-01-01T07:22:25.225Z,99538.22
2018-01-01T07:23:27.675Z,99538.22
2018-01-01T07:24:30.150Z,99539.77
2018-01-01T07:25:32.601Z,99548.00
2018-01-01T07:26:35.063Z,99547.20
2018-01-01T07:27:37.514Z,99546.23
2018-01-01T07:28:39.979Z,99541.31
2018-01-01T07:29:42.454Z,99546.80
2018-01-01T07:30:44.924Z,99547.77
2018-01-01T07:31:47.375Z,99543.83
2018-01-01T07:32:49.845Z,99544.80
2018-01-01T07:33:52.312Z,99552.23
2018-01-01T07:34:54.792Z,99554.00
2018-01-01T07:35:57.241Z,99549.09
2018-01-01T07:36:59.702Z,99541.25
2018-01-01T07:38:02.918Z,99541.83
2018-01-01T07:39:05.392Z,99545.94
2018-01-01T07:40:07.857Z,99547.88
2018-01-01T07:41:10.418Z,99554.58
2018-01-01T07:42:12.883Z,99551.83
2018-01-01T07:43:15.333Z,99551.17
2018-01-01T07:44:17.781Z,99550.23
2018-01-01T07:45:20.234Z,99553.12
2018-01-01T07:46:22.690Z,99549.40
2018-01-01T07:47:25.142Z,99550.38
2018-01-01T07:48:27.599Z,99554.48
2018-01-01T07:49:30.068Z,99541.91
2018-01-01T07:50:32.536Z,99552.31
2018-01-01T07:51:34.986Z,99558.78
2018-01-01T07:52:37.443Z,99554.26
2018-01-01T07:53:39.907Z,99554.03
2018-01-01T07:54:42.384Z,99549.34
2018-01-01T07:55:44.834Z,99550.31
2018-01-01T07:56:47.301Z,99551.69
2018-01-01T07:57:49.776Z,99551.45
2018-01-01T07:58:52.243Z,99553.23
2018-01-01T07:59:54.689Z,99546.59
2018-01-01T08:00:57.149Z,99550.72
2018-01-01T08:01:59.605Z,99549.52
2018-01-01T08:03:02.075Z,99542.25
2018-01-01T08:04:04.539Z,99544.42
2018-01-01T08:05:06.990Z,99549.52
2018-01-01T08:06:09.450Z,99553.80
2018-01-01T08:07:11.906Z,99548.48
2018-01-01T08:08:14.375Z,99549.69
2018-01-01T08:09:16.829Z,99547.69
2018-01-01T08:10:19.290Z,99551.80
2018-01-01T08:11:21.745Z,99547.69
2018-01-01T08:12:24.216Z,99553.17
2018-01-01T08:13:26.666Z,99546.48
2018-01-01T08:14:29.140Z,99554.72
2018-01-01T08:15:31.616Z,99548.83
2018-01-01T08:16:34.066Z,99551.97
2018-01-01T08:17:36.548Z,99559.80
2018-01-01T08:18:39.016Z,99548.02
2018-01-01T08:19:41.496Z,99553.52
2018-01-01T08:20:43.949Z,99555.06
2018-01-01T08:21:46.406Z,99552.72
2018-01-01T08:22:48.866Z,99558.37
2018-01-01T08:23:51.318Z,99560.38
2018-01-01T08:24:53.784Z,99560.55
2018-01-01T08:25:56.237Z,99551.11
2018-01-01T08:26:58.716Z,99556.20
2018-01-01T08:28:01.182Z,99555.63
2018-01-01T08:29:03.634Z,99561.30
2018-01-01T08:30:06.088Z,99558.37
2018-01-01T08:31:08.544Z,99566.78
2018-01-01T08:32:11.010Z,99570.89
2018-01-01T08:33:13.474Z,99567.18
2018-01-01T08:34:15.939Z,99568.16
2018-01-01T08:35:18.419Z,99573.24
2018-01-01T08:36:20.870Z,99571.47
2018-01-01T08:37:23.337Z,99573.02
2018-01-01T08:38:25.922Z,99573.98
2018-01-01T08:39:28.392Z,99578.10
2018-01-01T08:40:30.846Z,99586.33
2018-01-01T08:41:33.306Z,99578.50
2018-01-01T08:42:35.784Z,99575.36
2018-01-01T08:43:38.236Z,99574.16
2018-01-01T08:44:40.700Z,99586.67
2018-01-01T08:45:43.149Z,99588.28
2018-01-01T08:46:45.610Z,99592.97
2018-01-01T08:47:48.058Z,99592.39
2018-01-01T08:48:50.522Z,99587.65
2018-01-01T08:49:53.059Z,99583.93
2018-01-01T08:50:55.525Z,99594.51
2018-01-01T08:51:57.986Z,99592.34
2018-01-01T08:53:00.442Z,99590.16
2018-01-01T08:54:02.901Z,99583.30
2018-01-01T08:55:05.368Z,99583.30
2018-01-01T08:56:07.840Z,99577.81
2018-01-01T08:57:10.304Z,99578.38
2018-01-01T08:58:12.768Z,99579.76
2018-01-01T08:59:15.238Z,99576.21
2018-01-01T09:00:17.685Z,99577.98
2018-01-01T09:01:20.159Z,99573.06
2018-01-01T09:02:22.644Z,99578.73
2018-01-01T09:03:25.108Z,99572.27
2018-01-01T09:04:27.566Z,99579.13
2018-01-01T09:05:30.036Z,99568.16
2018-01-01T09:06:32.482Z,99569.66
2018-01-01T09:07:34.946Z,99569.66
2018-01-01T09:08:37.393Z,99568.46
2018-01-01T09:09:39.857Z,99573.95
2018-01-01T09:10:42.325Z,99569.03
2018-01-01T09:11:54.686Z,99571.95
2018-01-01T09:12:57.133Z,99570.58
2018-01-01T09:13:59.612Z,99576.47
2018-01-01T09:15:02.125Z,99573.32
2018-01-01T09:16:04.598Z,99573.89
2018-01-01T09:17:07.080Z,99564.69
2018-01-01T09:18:09.538Z,99579.20
2018-01-01T09:19:14.364Z,99574.86
2018-01-01T09:20:16.822Z,99566.63
2018-01-01T09:21:19.291Z,99558.40
2018-01-01T09:22:21.761Z,99562.11
2018-01-01T09:23:24.209Z,99566.80
2018-01-01T09:24:26.694Z,99566.80
2018-01-01T09:25:29.146Z,99565.59
2018-01-01T09:26:31.597Z,99570.69
2018-01-01T09:27:34.046Z,99568.52
2018-01-01T09:28:39.646Z,99569.88
2018-01-01T09:29:42.117Z,99565.37
2018-01-01T09:30:46.786Z,99567.14
2018-01-01T09:31:49.573Z,99568.91
2018-01-01T09:32:52.057Z,99569.48
2018-01-01T09:33:57.372Z,99558.52
2018-01-01T09:35:00.130Z,99563.59
2018-01-01T09:36:02.600Z,99563.03
2018-01-01T09:37:05.073Z,99565.94
2018-01-01T09:38:07.526Z,99557.70
2018-01-01T09:39:09.983Z,99558.68
2018-01-01T09:40:12.453Z,99561.83
2018-01-01T09:41:14.917Z,99563.20
2018-01-01T09:42:17.401Z,99562.00
2018-01-01T09:43:19.853Z,99559.25
2018-01-01T09:44:22.316Z,99557.48
2018-01-01T09:45:24.840Z,99562.00
2018-01-01T09:46:27.323Z,99566.52
2018-01-01T09:47:29.784Z,99562.40
2018-01-01T09:48:32.248Z,99559.02
2018-01-01T09:49:34.703Z,99555.88
2018-01-01T09:50:37.177Z,99553.53
2018-01-01T09:51:39.671Z,99556.85
2018-01-01T09:52:44.959Z,99559.59
2018-01-01T09:53:49.044Z,99550.96
2018-01-01T09:54:51.884Z,99551.36
2018-01-01T09:55:54.357Z,99550.73
2018-01-01T09:56:56.832Z,99543.87
2018-01-01T09:57:59.308Z,99546.62
2018-01-01T09:59:01.762Z,99539.36
2018-01-01T10:00:04.209Z,99535.02
2018-01-01T10:01:06.694Z,99533.64
2018-01-01T10:02:09.146Z,99534.04
2018-01-01T10:03:11.628Z,99531.30
2018-01-01T10:04:14.094Z,99529.70
2018-01-01T10:05:16.547Z,99527.92
2018-01-01T10:06:19.044Z,99532.84
2018-01-01T10:07:21.506Z,99529.70
2018-01-01T10:08:23.966Z,99529.30
2018-01-01T10:09:26.434Z,99529.30
2018-01-01T10:10:28.896Z,99527.13
2018-01-01T10:11:31.384Z,99523.41
2018-01-01T10:12:33.849Z,99523.01
2018-01-01T10:13:36.342Z,99521.23
2018-01-01T10:14:38.804Z,99519.06
2018-01-01T10:15:41.253Z,99511.23
2018-01-01T10:16:43.765Z,99512.20
2018-01-01T10:17:46.219Z,99512.20
2018-01-01T10:18:48.673Z,99511.23
2018-01-01T10:19:51.245Z,99511.80
2018-01-01T10:20:53.718Z,99507.86
2018-01-01T10:21:56.220Z,99500.43
2018-01-01T10:22:58.675Z,99497.42
2018-01-01T10:24:01.134Z,99494.14
2018-01-01T10:25:03.581Z,99492.91
2018-01-01T10:26:06.056Z,99497.03
2018-01-01T10:27:08.529Z,99493.48
2018-01-01T10:28:11.014Z,99500.91
2018-01-01T10:29:13.499Z,99487.59
2018-01-01T10:30:15.987Z,99492.11
2018-01-01T10:31:18.468Z,99486.39
2018-01-01T10:32:20.947Z,99481.30
2018-01-01T10:33:23.416Z,99483.48
2018-01-01T10:34:25.865Z,99482.68
2018-01-01T10:35:28.329Z,99480.91
2018-01-01T10:36:30.804Z,99474.28
2018-01-01T10:37:33.296Z,99475.82
2018-01-01T10:38:35.761Z,99473.48
2018-01-01T10:39:38.226Z,99462.11
2018-01-01T10:40:40.690Z,99465.42
2018-01-01T10:41:43.172Z,99464.28
2018-01-01T10:42:45.668Z,99458.96
2018-01-01T10:43:48.164Z,99459.77
2018-01-01T10:44:50.655Z,99453.88
2018-01-01T10:45:53.109Z,99461.30
2018-01-01T10:46:55.570Z,99461.70
2018-01-01T10:47:58.115Z,99458.56
2018-01-01T10:49:00.578Z,99454.62
2018-01-01T10:50:03.042Z,99463.65
2018-01-01T10:51:05.515Z,99463.65
2018-01-01T10:52:07.970Z,99455.19
2018-01-01T10:53:10.487Z,99460.67
2018-01-01T10:54:12.960Z,99453.02
2018-01-01T10:55:15.430Z,99453.42
2018-01-01T10:56:17.894Z,99446.33
2018-01-01T10:57:20.438Z,99446.16
2018-01-01T10:58:22.925Z,99441.64
2018-01-01T10:59:25.456Z,99444.95
2018-01-01T11:00:27.914Z,99432.22
2018-01-01T11:01:30.392Z,99434.16
2018-01-01T11:02:32.853Z,99435.93
2018-01-01T11:03:35.352Z,99431.81
2018-01-01T11:04:37.847Z,99432.39
2018-01-01T11:05:40.324Z,99434.16
2018-01-01T11:06:42.801Z,99427.30
2018-01-01T11:07:45.271Z,99425.30
2018-01-01T11:08:47.746Z,99427.88
2018-01-01T11:09:50.212Z,99431.98
2018-01-01T11:10:52.688Z,99424.33
2018-01-01T11:11:55.172Z,99423.53
2018-01-01T11:12:57.644Z,99423.93
2018-01-01T11:14:00.136Z,99421.98
2018-01-01T11:15:02.620Z,99423.93
2018-01-01T11:16:05.083Z,99424.33
2018-01-01T11:17:07.561Z,99416.10
2018-01-01T11:18:10.048Z,99415.70
2018-01-01T11:19:12.548Z,99416.27
2018-01-01T11:20:15.024Z,99412.95
2018-01-01T11:21:17.486Z,99411.19
2018-01-01T11:22:19.943Z,99414.90
2018-01-01T11:23:22.451Z,99403.93
2018-01-01T11:24:24.939Z,99410.78
2018-01-01T11:25:28.348Z,99402.16
2018-01-01T11:26:30.832Z,99404.50
2018-01-01T11:27:33.318Z,99405.47
2018-01-01T11:28:35.771Z,99403.12
2018-01-01T11:29:38.245Z,99394.50
2018-01-01T11:30:40.707Z,99393.30
2018-01-01T11:31:43.159Z,99385.47
2018-01-01T11:32:45.625Z,99393.13
2018-01-01T11:33:48.091Z,99385.47
2018-01-01T11:34:50.588Z,99396.05
2018-01-01T11:35:53.060Z,99387.41
2018-01-01T11:36:55.574Z,99387.02
2018-01-01T11:37:58.028Z,99384.67
2018-01-01T11:39:00.506Z,99380.95
2018-01-01T11:40:02.978Z,99376.05
2018-01-01T11:41:05.428Z,99372.90
2018-01-01T11:42:07.956Z,99372.90
2018-01-01T11:43:10.423Z,99369.58
2018-01-01T11:44:12.892Z,99358.78
2018-01-01T11:45:15.362Z,99358.78
2018-01-01T11:46:17.827Z,99357.02
2018-01-01T11:47:20.296Z,99360.33
2018-01-01T11:48:22.746Z,99357.59
2018-01-01T11:49:25.198Z,99353.47
2018-01-01T11:50:27.696Z,99347.98
2018-01-01T11:51:30.147Z,99344.44
2018-01-01T11:52:32.612Z,99340.33
2018-01-01T11:53:35.078Z,99344.62
2018-01-01T11:54:37.552Z,99339.53
2018-01-01T11:55:40.036Z,99343.64
2018-01-01T11:56:42.494Z,99340.33
2018-01-01T11:57:44.946Z,99335.81
2018-01-01T11:58:47.411Z,99328.56
2018-01-01T11:59:49.863Z,99332.67
2018-01-01T12:00:52.333Z,99338.33
2018-01-01T12:01:54.791Z,99332.45
2018-01-01T12:02:57.267Z,99326.39
2018-01-01T12:03:59.735Z,99320.91
2018-01-01T12:05:02.186Z,99322.27
2018-01-01T12:06:04.672Z,99318.56
2018-01-01T12:07:07.133Z,99316.78
2018-01-01T12:08:09.665Z,99321.88
2018-01-01T12:09:12.234Z,99316.78
2018-01-01T12:10:14.708Z,99315.41
2018-01-01T12:11:17.224Z,99314.62
2018-01-01T12:12:19.845Z,99311.48
2018-01-01T12:13:22.199Z,99307.36
2018-01-01T12:14:24.656Z,99300.10